createdAt,value
2022-07-29T00:02:28.189Z,30.25
2022-07-29T00:04:55.203Z,32.00
2022-07-29T00:07:22.014Z,30.00
2022-07-29T00:09:52.156Z,30.25
2022-07-29T00:12:25.331Z,31.50
2022-07-29T00:14:57.642Z,31.50
2022-07-29T00:17:26.002Z,31.00
2022-07-29T00:19:58.862Z,31.00
2022-07-29T00:22:25.780Z,31.00
2022-07-29T00:24:55.259Z,30.50
2022-07-29T00:27:22.288Z,34.00
2022-07-29T00:30:15.446Z,34.00
2022-07-29T00:32:42.447Z,33.00
2022-07-29T00:35:09.723Z,32.00
2022-07-29T00:37:36.838Z,31.00
2022-07-29T00:40:04.321Z,30.00
2022-07-29T00:42:31.319Z,30.00
2022-07-29T00:45:00.826Z,29.00
2022-07-29T00:47:27.733Z,29.50
2022-07-29T00:49:54.597Z,30.00
2022-07-29T00:52:21.588Z,29.75
2022-07-29T00:54:48.546Z,30.00
2022-07-29T00:57:15.711Z,29.50
2022-07-29T00:59:42.625Z,29.50
2022-07-29T01:02:09.690Z,30.75
2022-07-29T01:04:36.684Z,30.50
2022-07-29T01:07:05.200Z,30.00
2022-07-29T01:09:46.416Z,31.00
2022-07-29T01:12:22.684Z,32.50
2022-07-29T01:14:51.127Z,31.00
2022-07-29T01:17:24.132Z,30.00
2022-07-29T01:20:21.316Z,29.00
2022-07-29T01:23:20.561Z,28.50
2022-07-29T01:26:52.621Z,29.50
2022-07-29T01:29:38.686Z,29.50
2022-07-29T01:32:18.070Z,30.25
2022-07-29T01:35:11.400Z,30.50
2022-07-29T01:37:46.264Z,33.50
2022-07-29T01:40:41.730Z,33.00
2022-07-29T01:43:13.873Z,31.00
2022-07-29T01:45:49.017Z,31.00
2022-07-29T01:48:43.331Z,31.00
2022-07-29T01:51:18.041Z,30.00
2022-07-29T01:54:19.995Z,29.50
2022-07-29T01:56:51.937Z,29.50
2022-07-29T01:59:21.269Z,29.00
2022-07-29T02:01:50.682Z,29.00
2022-07-29T02:04:29.395Z,28.50
2022-07-29T02:07:02.730Z,30.00
2022-07-29T02:09:31.552Z,31.00
2022-07-29T02:12:01.310Z,30.50
2022-07-29T02:14:32.268Z,31.00
2022-07-29T02:17:01.663Z,30.00
2022-07-29T02:19:30.370Z,29.00
2022-07-29T02:21:59.728Z,31.00
2022-07-29T02:24:27.715Z,29.00
2022-07-29T02:26:57.238Z,30.00
2022-07-29T02:29:27.372Z,29.00
2022-07-29T02:31:55.613Z,28.00
2022-07-29T02:34:24.443Z,30.00
2022-07-29T02:36:56.756Z,30.00
2022-07-29T02:39:27.350Z,30.00
2022-07-29T02:42:02.357Z,29.00
2022-07-29T02:44:34.422Z,29.50
2022-07-29T02:47:41.900Z,29.75
2022-07-29T02:50:32.183Z,28.75
2022-07-29T02:53:03.902Z,30.00
2022-07-29T02:55:35.808Z,30.00
2022-07-29T02:58:09.754Z,30.00
2022-07-29T03:00:39.334Z,31.00
2022-07-29T03:03:12.241Z,30.00
2022-07-29T03:05:40.629Z,30.00
2022-07-29T03:08:11.444Z,31.25
2022-07-29T03:10:44.797Z,31.00
2022-07-29T03:13:13.532Z,31.00
2022-07-29T03:15:40.930Z,31.75
2022-07-29T03:18:08.559Z,32.50
2022-07-29T03:20:35.493Z,32.00
2022-07-29T03:23:02.503Z,32.00
2022-07-29T03:25:29.425Z,31.00
2022-07-29T03:27:56.351Z,29.00
2022-07-29T03:30:23.749Z,31.00
2022-07-29T03:32:52.696Z,31.75
2022-07-29T03:35:21.138Z,31.00
2022-07-29T03:37:50.803Z,33.25
2022-07-29T03:40:24.104Z,34.00
2022-07-29T03:42:54.916Z,34.00
2022-07-29T03:45:23.525Z,33.75
2022-07-29T03:48:00.629Z,34.00
2022-07-29T03:50:31.653Z,34.00
2022-07-29T03:52:59.276Z,35.00
2022-07-29T03:55:29.363Z,35.50
2022-07-29T03:58:22.895Z,35.75
2022-07-29T04:00:50.708Z,38.25
2022-07-29T04:03:17.640Z,40.75
2022-07-29T04:05:44.668Z,39.00
2022-07-29T04:08:11.605Z,36.00
2022-07-29T04:10:39.282Z,34.00
2022-07-29T04:13:06.527Z,35.50
2022-07-29T04:15:33.551Z,37.00
2022-07-29T04:18:00.722Z,35.00
2022-07-29T04:20:27.880Z,34.00
2022-07-29T04:22:54.668Z,33.00
2022-07-29T04:25:21.634Z,33.50
2022-07-29T04:27:48.485Z,34.00
2022-07-29T04:30:15.395Z,34.00
2022-07-29T04:32:44.404Z,34.25
2022-07-29T04:35:11.316Z,34.00
2022-07-29T04:37:38.309Z,33.75
2022-07-29T04:40:05.852Z,33.00
2022-07-29T04:42:32.693Z,33.00
2022-07-29T04:45:01.418Z,34.00
2022-07-29T04:47:28.309Z,33.75
2022-07-29T04:49:55.230Z,34.00
2022-07-29T04:52:22.033Z,33.25
2022-07-29T04:54:49.382Z,33.00
2022-07-29T04:57:16.246Z,32.00
2022-07-29T04:59:43.155Z,34.00
2022-07-29T05:02:38.784Z,34.75
2022-07-29T05:05:05.969Z,34.50
2022-07-29T05:07:47.280Z,34.50
2022-07-29T05:10:14.241Z,35.00
2022-07-29T05:12:41.060Z,34.00
2022-07-29T05:15:08.538Z,33.00
2022-07-29T05:17:35.358Z,32.00
2022-07-29T05:20:03.028Z,35.50
2022-07-29T05:22:29.908Z,35.00
2022-07-29T05:25:01.456Z,34.00
2022-07-29T05:27:30.147Z,35.25
2022-07-29T05:29:56.968Z,35.50
2022-07-29T05:32:23.888Z,36.00
2022-07-29T05:34:51.916Z,33.00
2022-07-29T05:37:20.972Z,33.00
2022-07-29T05:39:50.420Z,35.00
2022-07-29T05:42:17.839Z,36.00
2022-07-29T05:44:44.696Z,35.50
2022-07-29T05:47:11.544Z,34.50
2022-07-29T05:49:38.374Z,36.50
2022-07-29T05:52:05.876Z,36.00
2022-07-29T05:54:32.678Z,36.00
2022-07-29T05:56:59.508Z,36.00
2022-07-29T05:59:30.278Z,36.25
2022-07-29T06:01:57.777Z,35.00
2022-07-29T06:04:24.731Z,35.00
2022-07-29T06:06:57.645Z,35.50
2022-07-29T06:09:24.865Z,36.00
2022-07-29T06:11:51.690Z,36.00
2022-07-29T06:14:19.144Z,35.00
2022-07-29T06:16:47.312Z,34.50
2022-07-29T06:19:14.278Z,34.50
2022-07-29T06:21:45.236Z,36.00
2022-07-29T06:24:13.582Z,36.00
2022-07-29T06:26:41.771Z,35.75
2022-07-29T06:29:09.509Z,36.00
2022-07-29T06:31:36.320Z,38.00
2022-07-29T06:34:03.913Z,37.00
2022-07-29T06:36:31.845Z,36.00
2022-07-29T06:38:58.717Z,36.00
2022-07-29T06:41:26.340Z,35.25
2022-07-29T06:43:56.834Z,36.00
2022-07-29T06:46:29.185Z,34.00
2022-07-29T06:48:56.194Z,32.00
2022-07-29T06:51:24.197Z,37.00
2022-07-29T06:54:02.886Z,35.00
2022-07-29T06:56:39.434Z,34.00
2022-07-29T06:59:11.312Z,36.25
2022-07-29T07:01:47.459Z,35.00
2022-07-29T07:04:15.033Z,35.50
2022-07-29T07:06:42.233Z,34.00
2022-07-29T07:09:12.895Z,32.00
2022-07-29T07:11:41.031Z,32.50
2022-07-29T07:14:10.593Z,34.00
2022-07-29T07:16:40.164Z,34.00
2022-07-29T07:19:08.337Z,34.00
2022-07-29T07:21:55.487Z,34.00
2022-07-29T07:24:22.726Z,33.75
2022-07-29T07:26:49.664Z,33.00
2022-07-29T07:29:16.718Z,33.75
2022-07-29T07:31:43.726Z,34.50
2022-07-29T07:34:14.199Z,34.50
2022-07-29T07:36:41.417Z,32.00
2022-07-29T07:39:09.306Z,33.00
2022-07-29T07:42:08.725Z,32.00
2022-07-29T07:44:51.346Z,33.00
2022-07-29T07:47:22.761Z,32.75
2022-07-29T07:49:55.072Z,32.00
2022-07-29T07:52:23.055Z,31.00
2022-07-29T07:54:52.449Z,32.50
2022-07-29T07:57:24.980Z,35.25
2022-07-29T07:59:54.901Z,34.00
2022-07-29T08:02:22.004Z,32.00
2022-07-29T08:05:04.491Z,32.00
2022-07-29T08:07:38.831Z,32.00
2022-07-29T08:10:06.601Z,31.75
2022-07-29T08:12:33.661Z,31.00
2022-07-29T08:15:00.657Z,32.00
2022-07-29T08:17:27.662Z,31.75
2022-07-29T08:19:55.031Z,33.50
2022-07-29T08:22:21.925Z,32.00
2022-07-29T08:24:51.654Z,33.75
2022-07-29T08:27:42.479Z,35.00
2022-07-29T08:30:08.869Z,35.00
2022-07-29T08:33:04.997Z,34.00
2022-07-29T08:35:35.630Z,32.00
2022-07-29T08:38:32.659Z,32.75
2022-07-29T08:41:01.338Z,33.00
2022-07-29T08:43:34.333Z,33.00
2022-07-29T08:46:01.623Z,32.00
2022-07-29T08:48:28.549Z,33.50
2022-07-29T08:50:58.979Z,33.00
2022-07-29T08:53:29.231Z,35.00
2022-07-29T08:55:57.533Z,34.00
2022-07-29T08:58:26.500Z,32.00
2022-07-29T09:00:56.437Z,32.25
2022-07-29T09:03:51.094Z,34.00
2022-07-29T09:06:21.979Z,32.00
2022-07-29T09:09:08.799Z,33.00
2022-07-29T09:11:36.241Z,32.25
2022-07-29T09:14:10.443Z,33.75
2022-07-29T09:16:57.765Z,33.00
2022-07-29T09:19:31.063Z,32.75
2022-07-29T09:22:03.013Z,35.00
2022-07-29T09:24:45.288Z,35.00
2022-07-29T09:27:23.257Z,35.00
2022-07-29T09:30:08.066Z,34.00
2022-07-29T09:33:01.404Z,33.00
2022-07-29T09:35:31.801Z,32.00
2022-07-29T09:38:01.673Z,34.00
2022-07-29T09:40:29.354Z,33.00
2022-07-29T09:43:10.133Z,32.00
2022-07-29T09:45:37.383Z,33.00
2022-07-29T09:48:24.318Z,34.00
2022-07-29T09:50:52.205Z,33.00
2022-07-29T09:53:38.934Z,33.00
2022-07-29T09:56:08.860Z,33.00
2022-07-29T09:58:36.593Z,37.25
2022-07-29T10:01:03.900Z,34.00
2022-07-29T10:03:30.903Z,33.00
2022-07-29T10:06:12.699Z,34.00
2022-07-29T10:08:39.834Z,33.00
2022-07-29T10:11:16.436Z,35.00
2022-07-29T10:13:45.325Z,33.00
2022-07-29T10:16:13.898Z,31.00
2022-07-29T10:18:43.402Z,35.00
2022-07-29T10:21:10.964Z,33.00
2022-07-29T10:23:46.216Z,33.00
2022-07-29T10:26:14.247Z,33.00
2022-07-29T10:28:43.940Z,33.00
2022-07-29T10:31:28.528Z,32.50
2022-07-29T10:34:31.728Z,32.00
2022-07-29T10:37:21.187Z,31.00
2022-07-29T10:40:01.782Z,31.00
2022-07-29T10:42:34.347Z,31.50
2022-07-29T10:45:04.784Z,33.00
2022-07-29T10:47:32.216Z,33.00
2022-07-29T10:50:06.036Z,32.00
2022-07-29T10:52:51.315Z,31.00
2022-07-29T10:55:38.170Z,33.00
2022-07-29T10:58:43.405Z,34.00
2022-07-29T11:01:37.072Z,32.00
2022-07-29T11:04:04.968Z,31.00
2022-07-29T11:07:07.056Z,31.00
2022-07-29T11:09:37.678Z,30.00
2022-07-29T11:12:37.517Z,30.50
2022-07-29T11:15:09.144Z,30.00
2022-07-29T11:17:54.437Z,30.00
2022-07-29T11:20:39.429Z,30.00
2022-07-29T11:26:23.417Z,30.00
2022-07-29T11:29:16.900Z,30.00
2022-07-29T11:31:51.182Z,31.00
2022-07-29T11:34:28.067Z,30.00
2022-07-29T11:37:08.877Z,29.00
2022-07-29T11:39:39.335Z,30.00
2022-07-29T11:42:28.844Z,28.00
2022-07-29T11:45:41.494Z,28.00
2022-07-29T11:48:03.438Z,29.00
2022-07-29T11:50:36.006Z,30.00
2022-07-29T11:53:12.186Z,28.75
2022-07-29T11:55:51.571Z,30.50
2022-07-29T11:58:29.343Z,29.00
2022-07-29T12:00:57.753Z,29.00
2022-07-29T12:03:32.765Z,29.00
2022-07-29T12:06:23.366Z,30.00
2022-07-29T12:08:50.381Z,28.00
2022-07-29T12:11:21.805Z,28.75
2022-07-29T12:13:52.556Z,29.00
2022-07-29T12:16:25.330Z,29.00
2022-07-29T12:19:02.974Z,30.00
2022-07-29T12:21:52.374Z,29.00
2022-07-29T12:24:23.600Z,30.00
2022-07-29T12:26:58.584Z,29.00
2022-07-29T12:29:34.485Z,29.00
2022-07-29T12:32:04.966Z,27.00
2022-07-29T12:34:32.901Z,28.75
2022-07-29T12:36:59.948Z,30.00
2022-07-29T12:39:27.344Z,29.75
2022-07-29T12:42:03.884Z,30.00
2022-07-29T12:44:50.277Z,31.00
2022-07-29T12:47:19.151Z,31.00
2022-07-29T12:49:48.959Z,29.00
2022-07-29T12:52:29.312Z,29.00
2022-07-29T12:54:56.447Z,30.00
2022-07-29T12:57:23.492Z,30.00
2022-07-29T13:00:12.707Z,30.00
2022-07-29T13:02:41.315Z,30.00
2022-07-29T13:05:09.932Z,28.00
2022-07-29T13:07:54.227Z,29.50
2022-07-29T13:10:24.994Z,29.00
2022-07-29T13:13:08.329Z,29.00
2022-07-29T13:15:36.038Z,30.00
2022-07-29T13:18:02.955Z,32.00
2022-07-29T13:20:30.909Z,31.00
2022-07-29T13:23:01.473Z,30.00
2022-07-29T13:25:31.298Z,32.50
2022-07-29T13:27:59.120Z,31.00
2022-07-29T13:30:26.889Z,30.00
2022-07-29T13:32:53.895Z,31.50
2022-07-29T13:35:21.117Z,30.50
2022-07-29T13:37:48.306Z,29.75
2022-07-29T13:40:18.640Z,30.00
2022-07-29T13:42:45.731Z,30.50
2022-07-29T13:45:13.913Z,32.50
2022-07-29T13:47:49.492Z,32.00
2022-07-29T13:50:16.490Z,31.75
2022-07-29T13:52:43.386Z,31.00
2022-07-29T13:55:21.281Z,31.00
2022-07-29T13:57:54.922Z,31.00
2022-07-29T14:00:22.119Z,30.00
2022-07-29T14:02:49.538Z,29.25
2022-07-29T14:05:16.465Z,30.00
2022-07-29T14:07:43.351Z,29.75
2022-07-29T14:10:11.170Z,31.00
2022-07-29T14:12:57.510Z,33.00
2022-07-29T14:15:24.602Z,31.00
2022-07-29T14:17:51.587Z,30.00
2022-07-29T14:20:18.565Z,29.50
2022-07-29T14:22:45.828Z,29.00
2022-07-29T14:25:14.722Z,27.00
2022-07-29T14:28:02.570Z,29.25
2022-07-29T14:30:29.486Z,29.00
2022-07-29T14:32:56.293Z,29.00
2022-07-29T14:35:23.191Z,29.00
2022-07-29T14:37:49.983Z,28.00
2022-07-29T14:40:17.034Z,27.50
2022-07-29T14:42:43.900Z,26.75
2022-07-29T14:45:11.652Z,26.00
2022-07-29T14:47:39.401Z,28.50
2022-07-29T14:50:07.588Z,29.00
2022-07-29T14:52:37.122Z,30.00
2022-07-29T14:55:05.357Z,29.00
2022-07-29T14:57:43.332Z,28.00
2022-07-29T15:00:11.151Z,28.00
2022-07-29T15:03:00.488Z,29.00
2022-07-29T15:05:25.448Z,27.00
2022-07-29T15:07:56.046Z,27.75
2022-07-29T15:10:25.701Z,28.50
2022-07-29T15:12:54.936Z,28.00
2022-07-29T15:15:24.324Z,28.50
2022-07-29T15:17:54.110Z,29.00
2022-07-29T15:20:23.937Z,29.00
2022-07-29T15:22:50.943Z,28.50
2022-07-29T15:25:17.808Z,30.00
2022-07-29T15:27:48.931Z,29.00
2022-07-29T15:30:32.981Z,29.00
2022-07-29T15:33:02.000Z,29.00
2022-07-29T15:35:28.951Z,28.00
2022-07-29T15:38:03.421Z,28.00
2022-07-29T15:40:31.430Z,29.75
2022-07-29T15:42:58.288Z,30.00
2022-07-29T15:45:41.696Z,31.00
2022-07-29T15:48:15.696Z,29.75
2022-07-29T15:50:47.193Z,28.50
2022-07-29T15:53:23.390Z,27.00
2022-07-29T15:56:00.761Z,28.00
2022-07-29T15:59:06.337Z,27.00
2022-07-29T16:01:33.335Z,27.00
2022-07-29T16:04:00.289Z,29.00
2022-07-29T16:06:47.750Z,27.00
2022-07-29T16:09:15.782Z,31.75
2022-07-29T16:11:54.195Z,31.00
2022-07-29T16:14:21.285Z,30.00
2022-07-29T16:16:48.903Z,28.00
2022-07-29T16:19:19.008Z,27.00
2022-07-29T16:21:45.842Z,26.50
2022-07-29T16:24:29.033Z,26.50
2022-07-29T16:26:57.469Z,26.00
2022-07-29T16:29:26.979Z,35.00
2022-07-29T16:31:54.085Z,33.50
2022-07-29T16:34:31.112Z,30.00
2022-07-29T16:36:58.115Z,29.00
2022-07-29T16:39:25.097Z,27.00
2022-07-29T16:41:52.086Z,27.75
2022-07-29T16:44:18.954Z,28.00
2022-07-29T16:46:46.468Z,27.00
2022-07-29T16:49:19.210Z,27.00
2022-07-29T16:51:46.688Z,36.75
2022-07-29T16:54:13.810Z,31.00
2022-07-29T16:56:40.790Z,30.00
2022-07-29T16:59:26.129Z,27.00
2022-07-29T17:01:53.131Z,26.00
2022-07-29T17:04:20.161Z,27.00
2022-07-29T17:06:49.766Z,27.00
2022-07-29T17:09:56.371Z,26.00
2022-07-29T17:12:25.061Z,28.50
2022-07-29T17:14:51.890Z,27.00
2022-07-29T17:17:20.982Z,28.00
2022-07-29T17:20:07.199Z,27.00
2022-07-29T17:22:34.250Z,27.00
2022-07-29T17:25:01.226Z,27.00
2022-07-29T17:27:34.425Z,29.00
2022-07-29T17:30:02.103Z,32.25
2022-07-29T17:32:28.938Z,30.00
2022-07-29T17:34:55.862Z,30.00
2022-07-29T17:37:23.002Z,29.00
2022-07-29T17:39:49.948Z,29.00
2022-07-29T17:42:16.819Z,28.00
2022-07-29T17:44:44.500Z,27.75
2022-07-29T17:47:16.293Z,27.00
2022-07-29T17:49:44.983Z,28.25
2022-07-29T17:52:11.836Z,29.00
2022-07-29T17:54:38.827Z,27.00
2022-07-29T17:57:05.875Z,27.00
2022-07-29T17:59:32.942Z,28.00
2022-07-29T18:01:59.800Z,29.00
2022-07-29T18:04:26.721Z,27.00
2022-07-29T18:06:53.594Z,27.00
2022-07-29T18:09:23.345Z,27.00
2022-07-29T18:11:51.475Z,27.00
2022-07-29T18:14:18.321Z,28.00
2022-07-29T18:16:45.331Z,27.50
2022-07-29T18:19:28.581Z,27.00
2022-07-29T18:21:58.228Z,27.00
2022-07-29T18:24:27.337Z,27.00
2022-07-29T18:26:54.373Z,27.00
2022-07-29T18:29:21.663Z,27.00
2022-07-29T18:31:48.581Z,27.00
2022-07-29T18:34:15.665Z,27.50
2022-07-29T18:36:42.462Z,28.00
2022-07-29T18:39:09.418Z,27.00
2022-07-29T18:41:50.037Z,26.00
2022-07-29T18:44:22.007Z,25.00
2022-07-29T18:46:50.715Z,26.00
2022-07-29T18:49:17.769Z,26.00
2022-07-29T18:51:44.942Z,26.50
2022-07-29T18:54:11.924Z,27.00
2022-07-29T18:56:42.003Z,27.00
2022-07-29T18:59:08.960Z,25.00
2022-07-29T19:01:36.014Z,25.00
2022-07-29T19:04:03.215Z,26.00
2022-07-29T19:06:30.103Z,26.00
2022-07-29T19:08:56.988Z,26.00
2022-07-29T19:11:23.805Z,26.00
2022-07-29T19:13:53.640Z,26.00
2022-07-29T19:16:20.523Z,27.00
2022-07-29T19:18:47.422Z,26.00
2022-07-29T19:21:14.283Z,26.25
2022-07-29T19:24:01.907Z,26.00
2022-07-29T19:26:29.523Z,26.00
2022-07-29T19:28:56.431Z,26.00
2022-07-29T19:31:23.454Z,25.75
2022-07-29T19:33:50.889Z,26.00
2022-07-29T19:36:17.883Z,26.00
2022-07-29T19:38:44.779Z,25.50
2022-07-29T19:41:30.412Z,25.00
2022-07-29T19:43:57.323Z,25.50
2022-07-29T19:46:24.868Z,26.00
2022-07-29T19:48:52.465Z,25.00
2022-07-29T19:51:19.299Z,25.00
2022-07-29T19:53:46.255Z,25.00
2022-07-29T19:56:13.089Z,25.00
2022-07-29T19:58:39.923Z,25.00
2022-07-29T20:01:10.497Z,26.00
2022-07-29T20:03:39.470Z,25.00
2022-07-29T20:06:09.254Z,25.00
2022-07-29T20:08:36.624Z,25.00
2022-07-29T20:11:06.532Z,26.00
2022-07-29T20:13:37.492Z,25.75
2022-07-29T20:16:20.816Z,26.00
2022-07-29T20:18:47.881Z,26.75
2022-07-29T20:21:14.755Z,26.00
2022-07-29T20:23:41.701Z,26.00
2022-07-29T20:26:09.718Z,25.00
2022-07-29T20:28:36.870Z,25.00
2022-07-29T20:31:12.694Z,25.00
2022-07-29T20:33:48.261Z,25.75
2022-07-29T20:36:15.332Z,26.00
2022-07-29T20:38:42.128Z,26.00
2022-07-29T20:41:10.393Z,26.00
2022-07-29T20:43:39.935Z,27.00
2022-07-29T20:46:12.461Z,26.00
2022-07-29T20:48:42.212Z,26.00
2022-07-29T20:51:09.325Z,25.00
2022-07-29T20:53:38.739Z,25.00
2022-07-29T20:56:06.724Z,25.00
2022-07-29T20:58:34.365Z,25.00
2022-07-29T21:01:01.946Z,25.00
2022-07-29T21:03:29.228Z,24.00
2022-07-29T21:06:16.389Z,24.00
2022-07-29T21:08:43.658Z,24.00
2022-07-29T21:11:10.496Z,24.50
2022-07-29T21:13:37.537Z,25.00
2022-07-29T21:16:09.682Z,24.00
2022-07-29T21:18:39.654Z,24.00
2022-07-29T21:21:09.117Z,25.00
2022-07-29T21:23:36.007Z,25.00
2022-07-29T21:26:03.293Z,24.50
2022-07-29T21:28:38.615Z,25.00
2022-07-29T21:31:14.063Z,25.00
2022-07-29T21:33:42.999Z,25.00
2022-07-29T21:36:47.911Z,24.00
2022-07-29T21:39:15.356Z,24.00
2022-07-29T21:41:44.467Z,24.00
2022-07-29T21:44:13.477Z,24.00
2022-07-29T21:46:40.451Z,24.75
2022-07-29T21:49:10.469Z,24.00
2022-07-29T21:51:37.320Z,25.00
2022-07-29T21:54:04.508Z,24.50
2022-07-29T21:56:33.813Z,24.00
2022-07-29T21:59:00.730Z,25.00
2022-07-29T22:01:48.500Z,24.00
2022-07-29T22:04:15.909Z,24.00
2022-07-29T22:06:42.826Z,24.00
2022-07-29T22:09:09.771Z,24.00
2022-07-29T22:11:36.705Z,24.25
2022-07-29T22:14:05.482Z,27.00
2022-07-29T22:16:32.477Z,26.00
2022-07-29T22:18:59.417Z,25.00
2022-07-29T22:21:31.434Z,24.00
2022-07-29T22:23:58.468Z,25.00
2022-07-29T22:26:25.295Z,25.00
2022-07-29T22:28:52.323Z,24.00
2022-07-29T22:31:19.512Z,25.00
2022-07-29T22:33:50.447Z,24.50
2022-07-29T22:36:18.463Z,24.00
2022-07-29T22:38:49.105Z,24.00
2022-07-29T22:41:18.601Z,24.00
2022-07-29T22:43:45.430Z,29.25
2022-07-29T22:46:12.327Z,27.00
2022-07-29T22:48:39.261Z,25.00
2022-07-29T22:51:06.272Z,24.00
2022-07-29T22:53:33.072Z,24.00
2022-07-29T22:55:59.963Z,25.25
2022-07-29T22:58:26.910Z,26.00
2022-07-29T23:00:53.890Z,26.50
2022-07-29T23:03:21.777Z,27.25
2022-07-29T23:05:48.908Z,26.00
2022-07-29T23:08:15.740Z,27.50
2022-07-29T23:10:42.994Z,26.00
2022-07-29T23:13:10.464Z,25.00
2022-07-29T23:15:37.798Z,24.00
2022-07-29T23:18:04.676Z,24.00
2022-07-29T23:20:31.676Z,24.25
2022-07-29T23:22:58.643Z,23.50
2022-07-29T23:25:25.643Z,25.00
2022-07-29T23:27:52.579Z,25.00
2022-07-29T23:30:19.455Z,27.00
2022-07-29T23:32:46.558Z,31.25
2022-07-29T23:35:13.696Z,29.75
2022-07-29T23:37:40.620Z,26.00
2022-07-29T23:40:30.554Z,24.00
2022-07-29T23:42:57.445Z,24.00
2022-07-29T23:45:42.462Z,24.00
2022-07-29T23:48:11.195Z,31.25
2022-07-29T23:50:38.008Z,28.75
2022-07-29T23:53:04.857Z,34.50
2022-07-29T23:55:36.331Z,29.75
2022-07-29T23:58:05.232Z,26.00
